sensor_id;sensor_type;location;lat;lon;timestamp;P1;durP1;ratioP1;P2;durP2;ratioP2
16665;SDS011;8446;50.998;6.250;2023-04-24T00:01:01;2.50;;;2.30;;
16665;SDS011;8446;50.998;6.250;2023-04-24T00:03:28;2.10;;;1.77;;
16665;SDS011;8446;50.998;6.250;2023-04-24T00:05:55;1.60;;;1.50;;
16665;SDS011;8446;50.998;6.250;2023-04-24T00:08:24;3.73;;;2.27;;
16665;SDS011;8446;50.998;6.250;2023-04-24T00:10:51;3.00;;;2.70;;
16665;SDS011;8446;50.998;6.250;2023-04-24T00:13:18;3.33;;;1.90;;
16665;SDS011;8446;50.998;6.250;2023-04-24T00:15:45;3.80;;;2.00;;
16665;SDS011;8446;50.998;6.250;2023-04-24T00:18:13;7.70;;;1.90;;
16665;SDS011;8446;50.998;6.250;2023-04-24T00:20:40;3.70;;;2.40;;
16665;SDS011;8446;50.998;6.250;2023-04-24T00:23:08;5.90;;;2.37;;
16665;SDS011;8446;50.998;6.250;2023-04-24T00:25:35;3.10;;;2.17;;
16665;SDS011;8446;50.998;6.250;2023-04-24T00:28:02;5.70;;;2.70;;
16665;SDS011;8446;50.998;6.250;2023-04-24T00:30:29;5.67;;;2.73;;
16665;SDS011;8446;50.998;6.250;2023-04-24T00:32:56;3.00;;;2.70;;
16665;SDS011;8446;50.998;6.250;2023-04-24T00:35:24;11.80;;;2.97;;
16665;SDS011;8446;50.998;6.250;2023-04-24T00:37:51;4.60;;;2.80;;
16665;SDS011;8446;50.998;6.250;2023-04-24T00:40:18;3.30;;;2.87;;
16665;SDS011;8446;50.998;6.250;2023-04-24T00:42:45;7.20;;;3.37;;
16665;SDS011;8446;50.998;6.250;2023-04-24T00:45:12;7.57;;;4.47;;
16665;SDS011;8446;50.998;6.250;2023-04-24T00:47:39;8.87;;;3.70;;
16665;SDS011;8446;50.998;6.250;2023-04-24T00:50:07;6.07;;;4.30;;
16665;SDS011;8446;50.998;6.250;2023-04-24T00:52:36;10.00;;;4.07;;
16665;SDS011;8446;50.998;6.250;2023-04-24T00:55:05;5.30;;;4.03;;
16665;SDS011;8446;50.998;6.250;2023-04-24T00:57:33;8.10;;;4.40;;
16665;SDS011;8446;50.998;6.250;2023-04-24T01:00:00;7.17;;;4.50;;
16665;SDS011;8446;50.998;6.250;2023-04-24T01:02:28;7.23;;;4.57;;
16665;SDS011;8446;50.998;6.250;2023-04-24T01:04:55;5.67;;;4.43;;
16665;SDS011;8446;50.998;6.250;2023-04-24T01:07:22;11.37;;;5.80;;
16665;SDS011;8446;50.998;6.250;2023-04-24T01:09:50;8.27;;;4.70;;
16665;SDS011;8446;50.998;6.250;2023-04-24T01:12:17;9.23;;;5.67;;
16665;SDS011;8446;50.998;6.250;2023-04-24T01:14:44;10.30;;;5.03;;
16665;SDS011;8446;50.998;6.250;2023-04-24T01:17:11;8.13;;;5.63;;
16665;SDS011;8446;50.998;6.250;2023-04-24T01:19:38;10.70;;;5.60;;
16665;SDS011;8446;50.998;6.250;2023-04-24T01:22:09;9.50;;;6.23;;
16665;SDS011;8446;50.998;6.250;2023-04-24T01:24:37;9.10;;;5.97;;
16665;SDS011;8446;50.998;6.250;2023-04-24T01:27:04;8.20;;;5.90;;
16665;SDS011;8446;50.998;6.250;2023-04-24T01:29:31;13.30;;;6.30;;
16665;SDS011;8446;50.998;6.250;2023-04-24T01:31:58;12.53;;;6.60;;
16665;SDS011;8446;50.998;6.250;2023-04-24T01:34:25;12.33;;;6.33;;
16665;SDS011;8446;50.998;6.250;2023-04-24T01:36:52;10.90;;;6.70;;
16665;SDS011;8446;50.998;6.250;2023-04-24T01:39:21;15.53;;;7.10;;
16665;SDS011;8446;50.998;6.250;2023-04-24T01:41:50;14.83;;;6.70;;
16665;SDS011;8446;50.998;6.250;2023-04-24T01:44:17;12.67;;;7.07;;
16665;SDS011;8446;50.998;6.250;2023-04-24T01:46:44;11.50;;;6.80;;
16665;SDS011;8446;50.998;6.250;2023-04-24T01:49:11;11.60;;;7.07;;
16665;SDS011;8446;50.998;6.250;2023-04-24T01:51:38;12.53;;;6.30;;
16665;SDS011;8446;50.998;6.250;2023-04-24T01:54:05;15.57;;;7.33;;
16665;SDS011;8446;50.998;6.250;2023-04-24T01:56:33;12.70;;;7.10;;
16665;SDS011;8446;50.998;6.250;2023-04-24T01:59:00;14.40;;;7.90;;
16665;SDS011;8446;50.998;6.250;2023-04-24T02:01:32;10.80;;;7.03;;
16665;SDS011;8446;50.998;6.250;2023-04-24T02:04:01;8.53;;;6.33;;
16665;SDS011;8446;50.998;6.250;2023-04-24T02:06:28;9.07;;;6.60;;
16665;SDS011;8446;50.998;6.250;2023-04-24T02:08:56;12.97;;;6.77;;
16665;SDS011;8446;50.998;6.250;2023-04-24T02:11:23;13.50;;;7.07;;
16665;SDS011;8446;50.998;6.250;2023-04-24T02:13:51;10.80;;;6.10;;
16665;SDS011;8446;50.998;6.250;2023-04-24T02:16:18;18.23;;;6.60;;
16665;SDS011;8446;50.998;6.250;2023-04-24T02:18:45;12.40;;;6.53;;
16665;SDS011;8446;50.998;6.250;2023-04-24T02:21:11;11.47;;;6.77;;
16665;SDS011;8446;50.998;6.250;2023-04-24T02:23:38;10.13;;;5.90;;
16665;SDS011;8446;50.998;6.250;2023-04-24T02:26:05;9.50;;;6.20;;
16665;SDS011;8446;50.998;6.250;2023-04-24T02:28:32;9.73;;;7.03;;
16665;SDS011;8446;50.998;6.250;2023-04-24T02:31:00;8.87;;;5.77;;
16665;SDS011;8446;50.998;6.250;2023-04-24T02:33:27;12.60;;;6.80;;
16665;SDS011;8446;50.998;6.250;2023-04-24T02:35:54;12.07;;;6.10;;
16665;SDS011;8446;50.998;6.250;2023-04-24T02:38:21;15.97;;;6.70;;
16665;SDS011;8446;50.998;6.250;2023-04-24T02:40:47;13.33;;;7.03;;
16665;SDS011;8446;50.998;6.250;2023-04-24T02:43:14;13.47;;;7.67;;
16665;SDS011;8446;50.998;6.250;2023-04-24T02:45:41;9.87;;;6.30;;
16665;SDS011;8446;50.998;6.250;2023-04-24T02:48:09;9.20;;;6.03;;
16665;SDS011;8446;50.998;6.250;2023-04-24T02:50:36;16.03;;;7.10;;
16665;SDS011;8446;50.998;6.250;2023-04-24T02:53:02;13.50;;;6.57;;
16665;SDS011;8446;50.998;6.250;2023-04-24T02:55:29;13.07;;;6.67;;
16665;SDS011;8446;50.998;6.250;2023-04-24T02:57:56;19.20;;;6.70;;
16665;SDS011;8446;50.998;6.250;2023-04-24T03:00:23;13.00;;;7.60;;
16665;SDS011;8446;50.998;6.250;2023-04-24T03:02:50;13.07;;;6.67;;
16665;SDS011;8446;50.998;6.250;2023-04-24T03:05:18;10.73;;;7.30;;
16665;SDS011;8446;50.998;6.250;2023-04-24T03:07:45;14.83;;;7.10;;
16665;SDS011;8446;50.998;6.250;2023-04-24T03:10:12;21.33;;;7.70;;
16665;SDS011;8446;50.998;6.250;2023-04-24T03:12:38;18.60;;;7.40;;
16665;SDS011;8446;50.998;6.250;2023-04-24T03:15:06;17.00;;;7.53;;
16665;SDS011;8446;50.998;6.250;2023-04-24T03:17:33;13.40;;;7.23;;
16665;SDS011;8446;50.998;6.250;2023-04-24T03:20:00;18.43;;;7.33;;
16665;SDS011;8446;50.998;6.250;2023-04-24T03:22:28;17.80;;;7.67;;
16665;SDS011;8446;50.998;6.250;2023-04-24T03:24:57;10.70;;;6.77;;
16665;SDS011;8446;50.998;6.250;2023-04-24T03:27:24;8.50;;;6.30;;
16665;SDS011;8446;50.998;6.250;2023-04-24T03:29:51;9.57;;;6.30;;
16665;SDS011;8446;50.998;6.250;2023-04-24T03:32:20;10.10;;;6.77;;
16665;SDS011;8446;50.998;6.250;2023-04-24T03:34:47;11.53;;;7.53;;
16665;SDS011;8446;50.998;6.250;2023-04-24T03:37:14;13.20;;;6.87;;
16665;SDS011;8446;50.998;6.250;2023-04-24T03:39:42;9.93;;;7.00;;
16665;SDS011;8446;50.998;6.250;2023-04-24T03:42:09;9.10;;;6.60;;
16665;SDS011;8446;50.998;6.250;2023-04-24T03:44:35;16.67;;;8.10;;
16665;SDS011;8446;50.998;6.250;2023-04-24T03:47:02;10.53;;;6.47;;
16665;SDS011;8446;50.998;6.250;2023-04-24T03:49:29;8.63;;;5.80;;
16665;SDS011;8446;50.998;6.250;2023-04-24T03:51:56;8.77;;;6.40;;
16665;SDS011;8446;50.998;6.250;2023-04-24T03:54:23;10.60;;;6.37;;
16665;SDS011;8446;50.998;6.250;2023-04-24T03:56:51;12.47;;;6.73;;
16665;SDS011;8446;50.998;6.250;2023-04-24T03:59:18;7.80;;;6.17;;
16665;SDS011;8446;50.998;6.250;2023-04-24T04:01:44;10.90;;;6.50;;
16665;SDS011;8446;50.998;6.250;2023-04-24T04:04:11;11.70;;;5.70;;
16665;SDS011;8446;50.998;6.250;2023-04-24T04:06:38;11.47;;;7.17;;
16665;SDS011;8446;50.998;6.250;2023-04-24T04:09:05;8.93;;;5.70;;
16665;SDS011;8446;50.998;6.250;2023-04-24T04:11:32;8.03;;;5.90;;
16665;SDS011;8446;50.998;6.250;2023-04-24T04:14:00;11.30;;;5.67;;
16665;SDS011;8446;50.998;6.250;2023-04-24T04:16:27;12.47;;;5.50;;
16665;SDS011;8446;50.998;6.250;2023-04-24T04:18:53;11.93;;;5.67;;
16665;SDS011;8446;50.998;6.250;2023-04-24T04:21:20;9.50;;;6.33;;
16665;SDS011;8446;50.998;6.250;2023-04-24T04:23:47;7.97;;;5.43;;
16665;SDS011;8446;50.998;6.250;2023-04-24T04:26:14;12.40;;;6.40;;
16665;SDS011;8446;50.998;6.250;2023-04-24T04:28:41;7.90;;;5.27;;
16665;SDS011;8446;50.998;6.250;2023-04-24T04:31:11;7.80;;;4.93;;
16665;SDS011;8446;50.998;6.250;2023-04-24T04:33:37;10.63;;;7.60;;
16665;SDS011;8446;50.998;6.250;2023-04-24T04:36:05;9.20;;;5.93;;
16665;SDS011;8446;50.998;6.250;2023-04-24T04:38:32;10.10;;;5.83;;
16665;SDS011;8446;50.998;6.250;2023-04-24T04:41:00;11.37;;;5.30;;
16665;SDS011;8446;50.998;6.250;2023-04-24T04:43:27;9.80;;;6.73;;
16665;SDS011;8446;50.998;6.250;2023-04-24T04:45:54;9.73;;;5.50;;
16665;SDS011;8446;50.998;6.250;2023-04-24T04:48:22;7.47;;;5.10;;
16665;SDS011;8446;50.998;6.250;2023-04-24T04:50:49;11.30;;;4.73;;
16665;SDS011;8446;50.998;6.250;2023-04-24T04:53:16;13.37;;;5.20;;
16665;SDS011;8446;50.998;6.250;2023-04-24T04:55:42;8.63;;;5.10;;
16665;SDS011;8446;50.998;6.250;2023-04-24T04:58:09;8.20;;;5.37;;
16665;SDS011;8446;50.998;6.250;2023-04-24T05:00:36;7.47;;;5.37;;
16665;SDS011;8446;50.998;6.250;2023-04-24T05:03:03;7.13;;;5.07;;
16665;SDS011;8446;50.998;6.250;2023-04-24T05:05:31;7.53;;;4.80;;
16665;SDS011;8446;50.998;6.250;2023-04-24T05:07:58;7.93;;;5.13;;
16665;SDS011;8446;50.998;6.250;2023-04-24T05:10:25;9.63;;;4.10;;
16665;SDS011;8446;50.998;6.250;2023-04-24T05:12:51;7.30;;;5.40;;
16665;SDS011;8446;50.998;6.250;2023-04-24T05:15:18;7.20;;;4.00;;
16665;SDS011;8446;50.998;6.250;2023-04-24T05:17:45;7.40;;;4.93;;
16665;SDS011;8446;50.998;6.250;2023-04-24T05:20:12;5.90;;;4.20;;
16665;SDS011;8446;50.998;6.250;2023-04-24T05:22:41;6.20;;;4.03;;
16665;SDS011;8446;50.998;6.250;2023-04-24T05:25:08;7.40;;;4.40;;
16665;SDS011;8446;50.998;6.250;2023-04-24T05:27:35;6.73;;;4.07;;
16665;SDS011;8446;50.998;6.250;2023-04-24T05:30:02;7.10;;;4.10;;
16665;SDS011;8446;50.998;6.250;2023-04-24T05:32:29;8.10;;;4.60;;
16665;SDS011;8446;50.998;6.250;2023-04-24T05:34:56;5.00;;;4.20;;
16665;SDS011;8446;50.998;6.250;2023-04-24T05:37:23;7.30;;;4.97;;
16665;SDS011;8446;50.998;6.250;2023-04-24T05:39:51;9.00;;;4.47;;
16665;SDS011;8446;50.998;6.250;2023-04-24T05:42:18;7.67;;;3.80;;
16665;SDS011;8446;50.998;6.250;2023-04-24T05:44:44;6.67;;;4.03;;
16665;SDS011;8446;50.998;6.250;2023-04-24T05:47:11;5.57;;;4.03;;
16665;SDS011;8446;50.998;6.250;2023-04-24T05:49:38;11.90;;;4.73;;
16665;SDS011;8446;50.998;6.250;2023-04-24T05:52:05;5.70;;;3.60;;
16665;SDS011;8446;50.998;6.250;2023-04-24T05:54:33;11.90;;;4.60;;
16665;SDS011;8446;50.998;6.250;2023-04-24T05:57:01;6.17;;;3.77;;
16665;SDS011;8446;50.998;6.250;2023-04-24T05:59:32;8.43;;;4.90;;
16665;SDS011;8446;50.998;6.250;2023-04-24T06:01:59;6.00;;;4.00;;
16665;SDS011;8446;50.998;6.250;2023-04-24T06:04:26;7.37;;;4.23;;
16665;SDS011;8446;50.998;6.250;2023-04-24T06:06:53;4.73;;;3.70;;
16665;SDS011;8446;50.998;6.250;2023-04-24T06:09:21;5.90;;;4.20;;
16665;SDS011;8446;50.998;6.250;2023-04-24T06:11:48;6.53;;;3.90;;
16665;SDS011;8446;50.998;6.250;2023-04-24T06:14:16;9.83;;;3.20;;
16665;SDS011;8446;50.998;6.250;2023-04-24T06:16:43;5.77;;;2.57;;
16665;SDS011;8446;50.998;6.250;2023-04-24T06:19:10;5.53;;;3.33;;
16665;SDS011;8446;50.998;6.250;2023-04-24T06:21:37;4.77;;;3.10;;
16665;SDS011;8446;50.998;6.250;2023-04-24T06:24:04;3.33;;;2.67;;
16665;SDS011;8446;50.998;6.250;2023-04-24T06:26:30;6.47;;;2.67;;
16665;SDS011;8446;50.998;6.250;2023-04-24T06:28:57;3.63;;;2.67;;
16665;SDS011;8446;50.998;6.250;2023-04-24T06:31:26;2.80;;;2.47;;
16665;SDS011;8446;50.998;6.250;2023-04-24T06:33:53;2.90;;;2.60;;
16665;SDS011;8446;50.998;6.250;2023-04-24T06:36:20;2.33;;;1.80;;
16665;SDS011;8446;50.998;6.250;2023-04-24T06:38:47;2.05;;;1.85;;
16665;SDS011;8446;50.998;6.250;2023-04-24T06:41:13;2.30;;;1.63;;
16665;SDS011;8446;50.998;6.250;2023-04-24T06:43:40;6.03;;;2.20;;
16665;SDS011;8446;50.998;6.250;2023-04-24T06:46:07;3.63;;;2.27;;
16665;SDS011;8446;50.998;6.250;2023-04-24T06:48:35;1.80;;;1.70;;
16665;SDS011;8446;50.998;6.250;2023-04-24T06:51:02;2.17;;;1.50;;
16665;SDS011;8446;50.998;6.250;2023-04-24T06:53:29;1.47;;;1.37;;
16665;SDS011;8446;50.998;6.250;2023-04-24T06:55:56;4.60;;;2.28;;
16665;SDS011;8446;50.998;6.250;2023-04-24T06:58:23;2.97;;;1.92;;
16665;SDS011;8446;50.998;6.250;2023-04-24T07:00:50;3.83;;;2.88;;
16665;SDS011;8446;50.998;6.250;2023-04-24T07:03:17;2.50;;;1.95;;
16665;SDS011;8446;50.998;6.250;2023-04-24T07:05:46;2.83;;;2.40;;
16665;SDS011;8446;50.998;6.250;2023-04-24T07:08:13;2.58;;;1.90;;
16665;SDS011;8446;50.998;6.250;2023-04-24T07:10:42;3.50;;;2.17;;
16665;SDS011;8446;50.998;6.250;2023-04-24T07:13:09;3.15;;;2.05;;
16665;SDS011;8446;50.998;6.250;2023-04-24T07:15:36;2.90;;;2.50;;
16665;SDS011;8446;50.998;6.250;2023-04-24T07:18:04;1.63;;;1.52;;
16665;SDS011;8446;50.998;6.250;2023-04-24T07:20:31;2.42;;;1.75;;
16665;SDS011;8446;50.998;6.250;2023-04-24T07:23:00;2.08;;;1.83;;
16665;SDS011;8446;50.998;6.250;2023-04-24T07:25:28;2.67;;;2.10;;
16665;SDS011;8446;50.998;6.250;2023-04-24T07:27:54;3.92;;;2.40;;
16665;SDS011;8446;50.998;6.250;2023-04-24T07:30:21;10.73;;;2.20;;
16665;SDS011;8446;50.998;6.250;2023-04-24T07:32:48;3.00;;;2.25;;
16665;SDS011;8446;50.998;6.250;2023-04-24T07:35:15;2.30;;;1.75;;
16665;SDS011;8446;50.998;6.250;2023-04-24T07:37:42;3.13;;;2.30;;
16665;SDS011;8446;50.998;6.250;2023-04-24T07:40:12;2.58;;;2.33;;
16665;SDS011;8446;50.998;6.250;2023-04-24T07:42:39;4.97;;;1.92;;
16665;SDS011;8446;50.998;6.250;2023-04-24T07:45:06;2.17;;;1.73;;
16665;SDS011;8446;50.998;6.250;2023-04-24T07:47:34;4.70;;;1.92;;
16665;SDS011;8446;50.998;6.250;2023-04-24T07:50:02;2.15;;;1.92;;
16665;SDS011;8446;50.998;6.250;2023-04-24T07:52:29;1.80;;;1.60;;
16665;SDS011;8446;50.998;6.250;2023-04-24T07:54:56;2.28;;;2.08;;
16665;SDS011;8446;50.998;6.250;2023-04-24T07:57:26;1.90;;;1.70;;
16665;SDS011;8446;50.998;6.250;2023-04-24T07:59:53;2.70;;;1.90;;
16665;SDS011;8446;50.998;6.250;2023-04-24T08:02:20;3.95;;;1.92;;
16665;SDS011;8446;50.998;6.250;2023-04-24T08:04:51;1.70;;;1.60;;
16665;SDS011;8446;50.998;6.250;2023-04-24T08:07:18;6.78;;;2.90;;
16665;SDS011;8446;50.998;6.250;2023-04-24T08:09:45;3.38;;;2.58;;
16665;SDS011;8446;50.998;6.250;2023-04-24T08:12:12;2.75;;;2.13;;
16665;SDS011;8446;50.998;6.250;2023-04-24T08:14:40;4.78;;;2.05;;
16665;SDS011;8446;50.998;6.250;2023-04-24T08:17:07;2.45;;;2.17;;
16665;SDS011;8446;50.998;6.250;2023-04-24T08:19:34;4.32;;;3.17;;
16665;SDS011;8446;50.998;6.250;2023-04-24T08:22:01;3.72;;;3.03;;
16665;SDS011;8446;50.998;6.250;2023-04-24T08:24:29;4.30;;;2.78;;
16665;SDS011;8446;50.998;6.250;2023-04-24T08:26:56;7.25;;;3.10;;
16665;SDS011;8446;50.998;6.250;2023-04-24T08:29:23;3.35;;;2.88;;
16665;SDS011;8446;50.998;6.250;2023-04-24T08:31:53;8.48;;;3.03;;
16665;SDS011;8446;50.998;6.250;2023-04-24T08:34:20;3.72;;;2.90;;
16665;SDS011;8446;50.998;6.250;2023-04-24T08:36:47;7.07;;;3.22;;
16665;SDS011;8446;50.998;6.250;2023-04-24T08:39:14;6.43;;;3.40;;
16665;SDS011;8446;50.998;6.250;2023-04-24T08:41:41;7.28;;;3.28;;
16665;SDS011;8446;50.998;6.250;2023-04-24T08:44:10;3.65;;;2.80;;
16665;SDS011;8446;50.998;6.250;2023-04-24T08:46:37;2.72;;;2.47;;
16665;SDS011;8446;50.998;6.250;2023-04-24T08:49:07;6.80;;;4.70;;
16665;SDS011;8446;50.998;6.250;2023-04-24T08:51:33;6.78;;;3.95;;
16665;SDS011;8446;50.998;6.250;2023-04-24T08:54:02;3.50;;;2.72;;
16665;SDS011;8446;50.998;6.250;2023-04-24T08:56:30;7.88;;;3.83;;
16665;SDS011;8446;50.998;6.250;2023-04-24T08:59:02;4.25;;;2.65;;
16665;SDS011;8446;50.998;6.250;2023-04-24T09:01:30;5.78;;;4.05;;
16665;SDS011;8446;50.998;6.250;2023-04-24T09:04:00;6.05;;;4.50;;
16665;SDS011;8446;50.998;6.250;2023-04-24T09:06:30;7.80;;;4.22;;
16665;SDS011;8446;50.998;6.250;2023-04-24T09:08:58;5.50;;;3.90;;
16665;SDS011;8446;50.998;6.250;2023-04-24T09:11:27;7.40;;;3.90;;
16665;SDS011;8446;50.998;6.250;2023-04-24T09:13:54;7.70;;;3.67;;
16665;SDS011;8446;50.998;6.250;2023-04-24T09:16:21;8.90;;;3.67;;
16665;SDS011;8446;50.998;6.250;2023-04-24T09:18:49;6.47;;;4.00;;
16665;SDS011;8446;50.998;6.250;2023-04-24T09:21:16;8.23;;;4.70;;
16665;SDS011;8446;50.998;6.250;2023-04-24T09:23:44;6.40;;;3.40;;
16665;SDS011;8446;50.998;6.250;2023-04-24T09:26:11;7.53;;;4.17;;
16665;SDS011;8446;50.998;6.250;2023-04-24T09:28:40;8.70;;;4.00;;
16665;SDS011;8446;50.998;6.250;2023-04-24T09:31:07;4.63;;;2.67;;
16665;SDS011;8446;50.998;6.250;2023-04-24T09:33:36;5.70;;;3.37;;
16665;SDS011;8446;50.998;6.250;2023-04-24T09:36:03;7.87;;;3.87;;
16665;SDS011;8446;50.998;6.250;2023-04-24T09:38:31;5.20;;;3.03;;
16665;SDS011;8446;50.998;6.250;2023-04-24T09:41:01;9.63;;;3.70;;
16665;SDS011;8446;50.998;6.250;2023-04-24T09:43:29;6.77;;;3.30;;
16665;SDS011;8446;50.998;6.250;2023-04-24T09:45:56;5.67;;;3.50;;
16665;SDS011;8446;50.998;6.250;2023-04-24T09:48:31;4.30;;;3.03;;
16665;SDS011;8446;50.998;6.250;2023-04-24T09:50:58;12.50;;;3.90;;
16665;SDS011;8446;50.998;6.250;2023-04-24T09:53:26;4.77;;;3.17;;
16665;SDS011;8446;50.998;6.250;2023-04-24T09:55:53;9.33;;;3.90;;
16665;SDS011;8446;50.998;6.250;2023-04-24T09:58:25;10.10;;;3.60;;
16665;SDS011;8446;50.998;6.250;2023-04-24T10:00:53;9.20;;;4.33;;
16665;SDS011;8446;50.998;6.250;2023-04-24T10:03:20;3.67;;;2.90;;
16665;SDS011;8446;50.998;6.250;2023-04-24T10:05:47;7.20;;;3.50;;
16665;SDS011;8446;50.998;6.250;2023-04-24T10:08:14;13.53;;;5.30;;
16665;SDS011;8446;50.998;6.250;2023-04-24T10:10:41;8.53;;;3.17;;
16665;SDS011;8446;50.998;6.250;2023-04-24T10:13:09;4.13;;;3.50;;
16665;SDS011;8446;50.998;6.250;2023-04-24T10:15:38;3.23;;;2.70;;
16665;SDS011;8446;50.998;6.250;2023-04-24T10:18:07;12.63;;;3.60;;
16665;SDS011;8446;50.998;6.250;2023-04-24T10:20:35;9.50;;;3.70;;
16665;SDS011;8446;50.998;6.250;2023-04-24T10:23:04;10.67;;;4.47;;
16665;SDS011;8446;50.998;6.250;2023-04-24T10:25:31;7.67;;;3.50;;
16665;SDS011;8446;50.998;6.250;2023-04-24T10:28:00;18.03;;;4.70;;
16665;SDS011;8446;50.998;6.250;2023-04-24T10:30:28;12.27;;;3.97;;
16665;SDS011;8446;50.998;6.250;2023-04-24T10:32:58;11.93;;;4.27;;
16665;SDS011;8446;50.998;6.250;2023-04-24T10:35:26;13.60;;;3.97;;
16665;SDS011;8446;50.998;6.250;2023-04-24T10:37:58;6.43;;;4.00;;
16665;SDS011;8446;50.998;6.250;2023-04-24T10:40:30;17.30;;;4.37;;
16665;SDS011;8446;50.998;6.250;2023-04-24T10:42:57;15.93;;;4.07;;
16665;SDS011;8446;50.998;6.250;2023-04-24T10:45:24;6.57;;;3.70;;
16665;SDS011;8446;50.998;6.250;2023-04-24T10:47:52;11.27;;;4.70;;
16665;SDS011;8446;50.998;6.250;2023-04-24T10:50:23;7.57;;;4.27;;
16665;SDS011;8446;50.998;6.250;2023-04-24T10:52:52;6.27;;;3.47;;
16665;SDS011;8446;50.998;6.250;2023-04-24T10:55:39;5.50;;;3.30;;
16665;SDS011;8446;50.998;6.250;2023-04-24T10:58:08;8.10;;;4.07;;
16665;SDS011;8446;50.998;6.250;2023-04-24T11:00:36;9.80;;;3.67;;
16665;SDS011;8446;50.998;6.250;2023-04-24T11:03:04;11.43;;;4.10;;
16665;SDS011;8446;50.998;6.250;2023-04-24T11:05:50;13.70;;;3.33;;
16665;SDS011;8446;50.998;6.250;2023-04-24T11:08:22;15.00;;;4.47;;
16665;SDS011;8446;50.998;6.250;2023-04-24T11:10:54;9.80;;;4.50;;
16665;SDS011;8446;50.998;6.250;2023-04-24T11:13:23;9.10;;;4.07;;
16665;SDS011;8446;50.998;6.250;2023-04-24T11:18:41;14.20;;;5.10;;
16665;SDS011;8446;50.998;6.250;2023-04-24T11:21:12;6.20;;;3.50;;
16665;SDS011;8446;50.998;6.250;2023-04-24T11:23:39;21.63;;;4.70;;
16665;SDS011;8446;50.998;6.250;2023-04-24T11:26:10;8.67;;;4.67;;
16665;SDS011;8446;50.998;6.250;2023-04-24T11:28:37;14.93;;;5.23;;
16665;SDS011;8446;50.998;6.250;2023-04-24T11:34:06;11.30;;;5.07;;
16665;SDS011;8446;50.998;6.250;2023-04-24T11:36:40;11.03;;;4.30;;
16665;SDS011;8446;50.998;6.250;2023-04-24T11:39:09;7.23;;;4.20;;
16665;SDS011;8446;50.998;6.250;2023-04-24T11:41:36;6.23;;;3.77;;
16665;SDS011;8446;50.998;6.250;2023-04-24T11:44:04;20.67;;;6.40;;
16665;SDS011;8446;50.998;6.250;2023-04-24T11:46:32;13.20;;;3.77;;
16665;SDS011;8446;50.998;6.250;2023-04-24T11:48:59;15.37;;;5.00;;
16665;SDS011;8446;50.998;6.250;2023-04-24T11:51:27;7.70;;;4.03;;
16665;SDS011;8446;50.998;6.250;2023-04-24T11:53:55;16.63;;;5.83;;
16665;SDS011;8446;50.998;6.250;2023-04-24T11:56:22;18.90;;;5.80;;
16665;SDS011;8446;50.998;6.250;2023-04-24T11:58:51;9.30;;;5.03;;
16665;SDS011;8446;50.998;6.250;2023-04-24T12:01:19;11.50;;;4.80;;
16665;SDS011;8446;50.998;6.250;2023-04-24T12:03:47;9.60;;;5.23;;
16665;SDS011;8446;50.998;6.250;2023-04-24T12:06:16;5.47;;;4.20;;
16665;SDS011;8446;50.998;6.250;2023-04-24T12:08:45;8.10;;;4.00;;
16665;SDS011;8446;50.998;6.250;2023-04-24T12:11:14;11.00;;;4.30;;
16665;SDS011;8446;50.998;6.250;2023-04-24T12:13:43;10.80;;;4.10;;
16665;SDS011;8446;50.998;6.250;2023-04-24T12:16:11;9.37;;;4.20;;
16665;SDS011;8446;50.998;6.250;2023-04-24T12:18:42;13.00;;;4.60;;
16665;SDS011;8446;50.998;6.250;2023-04-24T12:21:17;9.70;;;3.53;;
16665;SDS011;8446;50.998;6.250;2023-04-24T12:23:44;5.57;;;3.80;;
16665;SDS011;8446;50.998;6.250;2023-04-24T12:26:12;12.23;;;4.60;;
16665;SDS011;8446;50.998;6.250;2023-04-24T12:28:42;9.13;;;4.63;;
16665;SDS011;8446;50.998;6.250;2023-04-24T12:31:09;15.53;;;4.70;;
16665;SDS011;8446;50.998;6.250;2023-04-24T12:33:35;13.13;;;5.33;;
16665;SDS011;8446;50.998;6.250;2023-04-24T12:36:03;13.43;;;4.77;;
16665;SDS011;8446;50.998;6.250;2023-04-24T12:38:31;7.57;;;4.10;;
16665;SDS011;8446;50.998;6.250;2023-04-24T12:41:05;11.97;;;4.33;;
16665;SDS011;8446;50.998;6.250;2023-04-24T12:43:34;12.83;;;4.10;;
16665;SDS011;8446;50.998;6.250;2023-04-24T12:46:02;12.07;;;3.80;;
16665;SDS011;8446;50.998;6.250;2023-04-24T12:48:29;14.27;;;4.23;;
16665;SDS011;8446;50.998;6.250;2023-04-24T12:50:57;10.57;;;3.70;;
16665;SDS011;8446;50.998;6.250;2023-04-24T12:53:26;7.40;;;3.77;;
16665;SDS011;8446;50.998;6.250;2023-04-24T12:55:54;8.10;;;4.50;;
16665;SDS011;8446;50.998;6.250;2023-04-24T12:58:21;10.07;;;4.70;;
16665;SDS011;8446;50.998;6.250;2023-04-24T13:00:50;11.13;;;4.00;;
16665;SDS011;8446;50.998;6.250;2023-04-24T13:03:17;12.00;;;4.27;;
16665;SDS011;8446;50.998;6.250;2023-04-24T13:05:44;9.43;;;4.30;;
16665;SDS011;8446;50.998;6.250;2023-04-24T13:08:11;9.13;;;4.03;;
16665;SDS011;8446;50.998;6.250;2023-04-24T13:10:38;6.50;;;3.40;;
16665;SDS011;8446;50.998;6.250;2023-04-24T13:13:06;7.80;;;3.40;;
16665;SDS011;8446;50.998;6.250;2023-04-24T13:15:33;5.90;;;3.63;;
16665;SDS011;8446;50.998;6.250;2023-04-24T13:18:01;10.70;;;4.20;;
16665;SDS011;8446;50.998;6.250;2023-04-24T13:20:28;8.30;;;3.40;;
16665;SDS011;8446;50.998;6.250;2023-04-24T13:22:55;8.77;;;3.60;;
16665;SDS011;8446;50.998;6.250;2023-04-24T13:25:22;7.80;;;3.30;;
16665;SDS011;8446;50.998;6.250;2023-04-24T13:27:49;13.03;;;3.23;;
16665;SDS011;8446;50.998;6.250;2023-04-24T13:30:16;6.73;;;2.73;;
16665;SDS011;8446;50.998;6.250;2023-04-24T13:32:43;11.50;;;4.57;;
16665;SDS011;8446;50.998;6.250;2023-04-24T13:35:11;13.23;;;3.03;;
16665;SDS011;8446;50.998;6.250;2023-04-24T13:37:38;3.20;;;2.53;;
16665;SDS011;8446;50.998;6.250;2023-04-24T13:40:05;12.80;;;7.60;;
16665;SDS011;8446;50.998;6.250;2023-04-24T13:42:33;7.77;;;3.47;;
16665;SDS011;8446;50.998;6.250;2023-04-24T13:45:00;6.07;;;3.57;;
16665;SDS011;8446;50.998;6.250;2023-04-24T13:47:27;8.87;;;3.70;;
16665;SDS011;8446;50.998;6.250;2023-04-24T13:49:53;7.50;;;3.53;;
16665;SDS011;8446;50.998;6.250;2023-04-24T13:52:21;7.10;;;3.07;;
16665;SDS011;8446;50.998;6.250;2023-04-24T13:54:48;7.60;;;3.23;;
16665;SDS011;8446;50.998;6.250;2023-04-24T13:57:15;7.57;;;3.67;;
16665;SDS011;8446;50.998;6.250;2023-04-24T13:59:42;8.37;;;3.73;;
16665;SDS011;8446;50.998;6.250;2023-04-24T14:02:10;6.80;;;4.00;;
16665;SDS011;8446;50.998;6.250;2023-04-24T14:04:37;4.70;;;3.60;;
16665;SDS011;8446;50.998;6.250;2023-04-24T14:07:03;9.60;;;3.80;;
16665;SDS011;8446;50.998;6.250;2023-04-24T14:09:31;6.37;;;3.70;;
16665;SDS011;8446;50.998;6.250;2023-04-24T14:11:58;4.70;;;2.70;;
16665;SDS011;8446;50.998;6.250;2023-04-24T14:14:26;6.13;;;2.63;;
16665;SDS011;8446;50.998;6.250;2023-04-24T14:16:54;4.80;;;3.00;;
16665;SDS011;8446;50.998;6.250;2023-04-24T14:19:21;5.93;;;2.80;;
16665;SDS011;8446;50.998;6.250;2023-04-24T14:21:48;6.47;;;2.70;;
16665;SDS011;8446;50.998;6.250;2023-04-24T14:24:15;7.30;;;2.37;;
16665;SDS011;8446;50.998;6.250;2023-04-24T14:26:44;3.20;;;2.23;;
16665;SDS011;8446;50.998;6.250;2023-04-24T14:29:10;9.10;;;2.83;;
16665;SDS011;8446;50.998;6.250;2023-04-24T14:31:37;10.10;;;3.20;;
16665;SDS011;8446;50.998;6.250;2023-04-24T14:34:04;7.17;;;3.57;;
16665;SDS011;8446;50.998;6.250;2023-04-24T14:36:31;5.03;;;2.53;;
16665;SDS011;8446;50.998;6.250;2023-04-24T14:38:57;9.77;;;3.60;;
16665;SDS011;8446;50.998;6.250;2023-04-24T14:41:24;5.80;;;3.13;;
16665;SDS011;8446;50.998;6.250;2023-04-24T14:43:52;5.13;;;3.57;;
16665;SDS011;8446;50.998;6.250;2023-04-24T14:46:19;4.03;;;3.23;;
16665;SDS011;8446;50.998;6.250;2023-04-24T14:48:46;6.57;;;3.20;;
16665;SDS011;8446;50.998;6.250;2023-04-24T14:51:13;6.53;;;3.20;;
16665;SDS011;8446;50.998;6.250;2023-04-24T14:53:40;7.33;;;2.90;;
16665;SDS011;8446;50.998;6.250;2023-04-24T14:56:07;4.73;;;2.23;;
16665;SDS011;8446;50.998;6.250;2023-04-24T14:58:34;4.00;;;3.17;;
16665;SDS011;8446;50.998;6.250;2023-04-24T15:01:02;4.10;;;2.50;;
16665;SDS011;8446;50.998;6.250;2023-04-24T15:03:29;4.93;;;2.83;;
16665;SDS011;8446;50.998;6.250;2023-04-24T15:05:56;6.60;;;2.87;;